Terminal Aerodrome Forecast
Issued by NWS

Home | Current Version | Previous Version | Text Only | Print | Product List | Glossary On
Versions: 1 2 3 4 5 6 7 8 9 10 11 12 13 14 15 16
000
FTUS42 KILM 301700
TAFCRE
TAF
KCRE 301736Z 3018/0118 01008KT P6SM SCT040
     FM302200 05003KT P6SM SKC
     FM011000 00000KT 4SM BR SKC
     FM011300 02006KT P6SM SKC=

USA.gov is the U.S. government's official web portal to all federal, state and local government web resources and services.